createdAt,value
2023-05-20T00:00:07.868Z,999.63
2023-05-20T00:00:35.619Z,999.73
2023-05-20T00:00:54.911Z,999.73
2023-05-20T00:01:26.924Z,999.73
2023-05-20T00:01:59.308Z,999.52
2023-05-20T00:02:31.298Z,999.52
2023-05-20T00:03:03.003Z,999.52
2023-05-20T00:03:35.805Z,999.63
2023-05-20T00:04:07.135Z,999.63
2023-05-20T00:04:35.644Z,999.73
2023-05-20T00:04:55.155Z,999.73
2023-05-20T00:05:26.939Z,999.73
2023-05-20T00:05:59.756Z,999.63
2023-05-20T00:06:31.472Z,999.63
2023-05-20T00:07:03.653Z,999.63
2023-05-20T00:07:35.533Z,999.52
2023-05-20T00:08:07.919Z,999.52
2023-05-20T00:08:36.341Z,999.63
2023-05-20T00:08:54.901Z,999.63
2023-05-20T00:09:33.033Z,999.63
2023-05-20T00:09:35.514Z,999.42
2023-05-20T00:09:59.344Z,999.42
2023-05-20T00:10:30.884Z,999.42
2023-05-20T00:11:02.899Z,999.52
2023-05-20T00:11:35.597Z,999.42
2023-05-20T00:12:06.907Z,999.42
2023-05-20T00:12:35.602Z,999.73
2023-05-20T00:12:54.905Z,999.73
2023-05-20T00:13:27.826Z,999.73
2023-05-20T00:13:59.462Z,999.52
2023-05-20T00:14:31.943Z,999.52
2023-05-20T00:15:02.914Z,999.83
2023-05-20T00:15:37.164Z,999.63
2023-05-20T00:16:06.971Z,999.63
2023-05-20T00:16:35.591Z,999.52
2023-05-20T00:16:55.105Z,999.52
2023-05-20T00:17:27.118Z,999.52
2023-05-20T00:17:59.877Z,999.52
2023-05-20T00:18:30.989Z,999.52
2023-05-20T00:19:02.992Z,999.42
2023-05-20T00:19:35.435Z,999.63
2023-05-20T00:20:06.979Z,999.63
2023-05-20T00:20:35.636Z,999.42
2023-05-20T00:20:55.236Z,999.42
2023-05-20T00:21:27.706Z,999.42
2023-05-20T00:21:59.370Z,999.42
2023-05-20T00:22:31.794Z,999.42
2023-05-20T00:23:02.910Z,999.42
2023-05-20T00:23:35.988Z,999.63
2023-05-20T00:24:06.882Z,999.63
2023-05-20T00:24:35.586Z,999.32
2023-05-20T00:24:54.894Z,999.32
2023-05-20T00:25:26.888Z,999.32
2023-05-20T00:26:00.716Z,999.52
2023-05-20T00:26:30.884Z,999.52
2023-05-20T00:27:03.781Z,999.52
2023-05-20T00:27:35.336Z,999.52
2023-05-20T00:28:07.958Z,999.52
2023-05-20T00:28:35.700Z,999.52
2023-05-20T00:28:54.894Z,999.52
2023-05-20T00:29:26.966Z,999.52
2023-05-20T00:29:59.319Z,999.52
2023-05-20T00:30:30.867Z,999.52
2023-05-20T00:31:02.876Z,999.32
2023-05-20T00:31:35.636Z,999.32
2023-05-20T00:32:06.939Z,999.32
2023-05-20T00:32:35.607Z,999.52
2023-05-20T00:32:55.307Z,999.52
2023-05-20T00:33:27.729Z,999.52
2023-05-20T00:33:59.250Z,999.42
2023-05-20T00:34:31.764Z,999.42
2023-05-20T00:35:02.898Z,999.42
2023-05-20T00:35:36.446Z,999.63
2023-05-20T00:36:06.851Z,999.63
2023-05-20T00:36:35.588Z,999.52
2023-05-20T00:36:54.848Z,999.52
2023-05-20T00:37:26.829Z,999.52
2023-05-20T00:37:59.709Z,999.42
2023-05-20T00:38:30.846Z,999.42
2023-05-20T00:39:03.713Z,999.52
2023-05-20T00:39:35.624Z,999.52
2023-05-20T00:40:07.661Z,999.52
2023-05-20T00:40:36.443Z,999.52
2023-05-20T00:40:55.178Z,999.52
2023-05-20T00:41:26.848Z,999.52
2023-05-20T00:42:04.992Z,999.52
2023-05-20T00:42:15.610Z,999.32
2023-05-20T00:42:35.715Z,999.32
2023-05-20T00:43:02.902Z,999.32
2023-05-20T00:43:36.272Z,999.52
2023-05-20T00:44:06.857Z,999.52
2023-05-20T00:44:35.749Z,999.42
2023-05-20T00:44:54.883Z,999.42
2023-05-20T00:45:27.761Z,999.42
2023-05-20T00:45:59.424Z,999.52
2023-05-20T00:46:31.774Z,999.52
2023-05-20T00:47:03.056Z,999.42
2023-05-20T00:47:36.843Z,999.52
2023-05-20T00:48:07.019Z,999.52
2023-05-20T00:48:35.598Z,999.52
2023-05-20T00:48:54.833Z,999.52
2023-05-20T00:49:26.864Z,999.52
2023-05-20T00:50:00.042Z,999.32
2023-05-20T00:50:30.848Z,999.32
2023-05-20T00:51:03.749Z,999.12
2023-05-20T00:51:35.272Z,999.52
2023-05-20T00:52:07.766Z,999.52
2023-05-20T00:52:35.745Z,999.32
2023-05-20T00:52:54.821Z,999.32
2023-05-20T00:53:26.867Z,999.32
2023-05-20T00:53:59.148Z,999.63
2023-05-20T00:54:30.845Z,999.63
2023-05-20T00:55:02.856Z,999.42
2023-05-20T00:55:35.857Z,999.32
2023-05-20T00:56:06.805Z,999.32
2023-05-20T00:56:35.618Z,999.42
2023-05-20T00:56:56.032Z,999.42
2023-05-20T00:57:27.875Z,999.42
2023-05-20T00:57:59.242Z,999.42
2023-05-20T00:58:31.728Z,999.42
2023-05-20T00:59:02.874Z,999.52
2023-05-20T00:59:35.746Z,999.42
2023-05-20T01:00:07.103Z,999.42
2023-05-20T01:00:35.746Z,999.42
2023-05-20T01:00:54.882Z,999.42
2023-05-20T01:01:26.805Z,999.42
2023-05-20T01:01:59.729Z,999.52
2023-05-20T01:02:30.831Z,999.52
2023-05-20T01:03:03.912Z,999.52
2023-05-20T01:03:35.730Z,999.63
2023-05-20T01:04:07.794Z,999.63
2023-05-20T01:04:35.766Z,999.32
2023-05-20T01:04:54.858Z,999.32
2023-05-20T01:05:26.844Z,999.32
2023-05-20T01:05:59.078Z,999.32
2023-05-20T01:06:30.848Z,999.32
2023-05-20T01:07:02.838Z,999.42
2023-05-20T01:07:35.782Z,999.42
2023-05-20T01:08:06.793Z,999.42
2023-05-20T01:08:35.827Z,999.22
2023-05-20T01:08:54.811Z,999.22
2023-05-20T01:09:27.770Z,999.22
2023-05-20T01:09:59.115Z,999.42
2023-05-20T01:10:31.625Z,999.42
2023-05-20T01:11:02.842Z,999.42
2023-05-20T01:11:35.800Z,999.42
2023-05-20T01:12:06.800Z,999.42
2023-05-20T01:12:35.753Z,999.52
2023-05-20T01:12:54.973Z,999.52
2023-05-20T01:13:26.944Z,999.52
2023-05-20T01:13:59.872Z,999.32
2023-05-20T01:14:30.877Z,999.32
2023-05-20T01:15:03.903Z,999.52
2023-05-20T01:15:35.925Z,999.52
2023-05-20T01:16:07.869Z,999.52
2023-05-20T01:16:35.795Z,999.32
2023-05-20T01:16:54.870Z,999.32
2023-05-20T01:17:27.263Z,999.32
2023-05-20T01:17:59.190Z,999.32
2023-05-20T01:18:30.807Z,999.32
2023-05-20T01:19:02.887Z,999.32
2023-05-20T01:19:35.105Z,999.42
2023-05-20T01:20:06.825Z,999.42
2023-05-20T01:20:35.709Z,999.42
2023-05-20T01:20:54.820Z,999.42
2023-05-20T01:21:27.775Z,999.42
2023-05-20T01:21:59.103Z,999.42
2023-05-20T01:22:31.720Z,999.42
2023-05-20T01:23:02.962Z,999.52
2023-05-20T01:23:36.773Z,999.32
2023-05-20T01:24:06.762Z,999.32
2023-05-20T01:24:35.628Z,999.42
2023-05-20T01:24:54.780Z,999.42
2023-05-20T01:25:26.851Z,999.42
2023-05-20T01:25:59.712Z,999.42
2023-05-20T01:26:30.880Z,999.42
2023-05-20T01:27:03.810Z,999.42
2023-05-20T01:27:35.094Z,999.52
2023-05-20T01:28:07.708Z,999.52
2023-05-20T01:28:35.791Z,999.52
2023-05-20T01:28:54.865Z,999.52
2023-05-20T01:29:26.828Z,999.52
2023-05-20T01:29:43.264Z,999.22
2023-05-20T01:30:22.114Z,999.22
2023-05-20T01:30:31.707Z,999.22
2023-05-20T01:31:02.904Z,999.22
2023-05-20T01:31:36.746Z,999.22
2023-05-20T01:32:06.813Z,999.22
2023-05-20T01:32:35.707Z,999.22
2023-05-20T01:32:54.894Z,999.22
2023-05-20T01:33:26.819Z,999.22
2023-05-20T01:33:43.264Z,999.42
2023-05-20T01:34:14.854Z,999.42
2023-05-20T01:34:35.786Z,999.52
2023-05-20T01:35:03.724Z,999.52
2023-05-20T01:35:35.377Z,999.32
2023-05-20T01:36:07.800Z,999.32
2023-05-20T01:36:35.800Z,999.32
2023-05-20T01:36:55.955Z,999.32
2023-05-20T01:37:26.847Z,999.32
2023-05-20T01:37:58.879Z,999.42
2023-05-20T01:38:30.817Z,999.42
2023-05-20T01:39:08.956Z,999.42
2023-05-20T01:39:19.636Z,999.22
2023-05-20T01:39:50.838Z,999.32
2023-05-20T01:40:23.823Z,999.32
2023-05-20T01:40:40.941Z,999.32
2023-05-20T01:41:11.026Z,999.32
2023-05-20T01:41:35.863Z,999.12
2023-05-20T01:41:59.078Z,999.12
2023-05-20T01:42:31.712Z,999.12
2023-05-20T01:43:02.839Z,999.42
2023-05-20T01:43:36.293Z,999.32
2023-05-20T01:44:07.505Z,999.32
2023-05-20T01:44:35.848Z,999.42
2023-05-20T01:44:54.813Z,999.42
2023-05-20T01:45:26.803Z,999.42
2023-05-20T01:45:43.424Z,999.42
2023-05-20T01:46:14.881Z,999.42
2023-05-20T01:46:35.687Z,999.22
2023-05-20T01:47:03.665Z,999.22
2023-05-20T01:47:35.163Z,999.42
2023-05-20T01:48:13.360Z,999.42
2023-05-20T01:48:23.774Z,999.42
2023-05-20T01:48:41.005Z,999.32
2023-05-20T01:49:10.872Z,999.32
2023-05-20T01:49:35.812Z,999.42
2023-05-20T01:49:59.186Z,999.42
2023-05-20T01:50:31.631Z,999.42
2023-05-20T01:51:02.874Z,999.32
2023-05-20T01:51:35.834Z,999.63
2023-05-20T01:52:06.795Z,999.63
2023-05-20T01:52:35.744Z,999.32
2023-05-20T01:52:55.387Z,999.32
2023-05-20T01:53:26.827Z,999.32
2023-05-20T01:53:43.347Z,999.42
2023-05-20T01:54:14.816Z,999.42
2023-05-20T01:54:35.650Z,999.22
2023-05-20T01:55:03.561Z,999.22
2023-05-20T01:55:35.436Z,999.32
2023-05-20T01:56:07.669Z,999.32
2023-05-20T01:56:35.603Z,999.52
2023-05-20T01:56:54.770Z,999.52
2023-05-20T01:57:27.432Z,999.52
2023-05-20T01:57:43.285Z,999.32
2023-05-20T01:58:15.568Z,999.32
2023-05-20T01:58:35.629Z,999.12
2023-05-20T01:59:02.804Z,999.12
2023-05-20T01:59:34.821Z,999.42
2023-05-20T02:00:06.984Z,999.42
2023-05-20T02:00:35.678Z,999.32
2023-05-20T02:00:54.806Z,999.32
2023-05-20T02:01:27.752Z,999.32
2023-05-20T02:01:58.856Z,999.42
2023-05-20T02:02:31.686Z,999.42
2023-05-20T02:03:02.842Z,999.42
2023-05-20T02:03:36.725Z,999.22
2023-05-20T02:04:06.878Z,999.22
2023-05-20T02:04:35.825Z,999.32
2023-05-20T02:04:54.754Z,999.32
2023-05-20T02:05:26.844Z,999.32
2023-05-20T02:05:43.516Z,999.42
2023-05-20T02:06:14.866Z,999.42
2023-05-20T02:06:35.681Z,999.32
2023-05-20T02:07:03.548Z,999.32
2023-05-20T02:07:34.790Z,999.32
2023-05-20T02:08:07.669Z,999.32
2023-05-20T02:08:35.790Z,999.42
2023-05-20T02:08:54.753Z,999.42
2023-05-20T02:09:26.827Z,999.42
2023-05-20T02:09:43.298Z,999.22
2023-05-20T02:10:15.694Z,999.22
2023-05-20T02:10:35.650Z,999.32
2023-05-20T02:11:02.798Z,999.32
2023-05-20T02:11:34.918Z,999.32
2023-05-20T02:12:06.878Z,999.32
2023-05-20T02:12:35.660Z,999.42
2023-05-20T02:12:54.740Z,999.42
2023-05-20T02:13:27.736Z,999.42
2023-05-20T02:13:58.758Z,999.42
2023-05-20T02:14:31.658Z,999.42
2023-05-20T02:15:09.832Z,999.42
2023-05-20T02:15:18.726Z,999.32
2023-05-20T02:15:50.859Z,999.52
2023-05-20T02:16:22.813Z,999.52
2023-05-20T02:16:40.950Z,999.42
2023-05-20T02:17:10.764Z,999.42
2023-05-20T02:17:35.646Z,999.42
2023-05-20T02:17:58.817Z,999.42
2023-05-20T02:18:30.909Z,999.42
2023-05-20T02:19:03.812Z,999.42
2023-05-20T02:19:34.760Z,999.22
2023-05-20T02:20:07.553Z,999.22
2023-05-20T02:20:35.618Z,999.22
2023-05-20T02:20:54.808Z,999.22
2023-05-20T02:21:26.818Z,999.22
2023-05-20T02:21:43.254Z,999.22
2023-05-20T02:22:15.638Z,999.22
2023-05-20T02:22:35.622Z,999.32
2023-05-20T02:23:02.775Z,999.32
2023-05-20T02:23:34.773Z,999.22
2023-05-20T02:24:07.660Z,999.22
2023-05-20T02:24:35.621Z,999.12
2023-05-20T02:24:54.866Z,999.12
2023-05-20T02:25:27.534Z,999.12
2023-05-20T02:25:58.713Z,999.32
2023-05-20T02:26:31.727Z,999.32
2023-05-20T02:27:02.809Z,999.22
2023-05-20T02:27:36.051Z,999.42
2023-05-20T02:28:06.777Z,999.42
2023-05-20T02:28:35.891Z,999.42
2023-05-20T02:28:54.738Z,999.42
2023-05-20T02:29:26.772Z,999.42
2023-05-20T02:29:43.358Z,999.32
2023-05-20T02:30:14.799Z,999.32
2023-05-20T02:30:35.601Z,999.42
2023-05-20T02:31:03.622Z,999.42
2023-05-20T02:31:34.766Z,999.42
2023-05-20T02:32:07.754Z,999.42
2023-05-20T02:32:35.810Z,999.32
2023-05-20T02:32:54.810Z,999.32
2023-05-20T02:33:26.718Z,999.32
2023-05-20T02:33:43.258Z,999.12
2023-05-20T02:34:15.725Z,999.12
2023-05-20T02:34:35.614Z,999.32
2023-05-20T02:35:02.781Z,999.32
2023-05-20T02:35:34.883Z,999.12
2023-05-20T02:36:13.249Z,999.12
2023-05-20T02:36:23.864Z,999.12
2023-05-20T02:36:40.889Z,999.22
2023-05-20T02:37:10.786Z,999.22
2023-05-20T02:37:35.599Z,999.12
2023-05-20T02:37:58.830Z,999.12
2023-05-20T02:38:31.652Z,999.12
2023-05-20T02:39:02.749Z,999.32
2023-05-20T02:39:36.193Z,999.02
2023-05-20T02:40:06.810Z,999.02
2023-05-20T02:40:35.725Z,999.22
2023-05-20T02:40:54.768Z,999.22
2023-05-20T02:41:26.757Z,999.22
2023-05-20T02:41:43.243Z,999.22
2023-05-20T02:42:14.758Z,999.22
2023-05-20T02:42:36.138Z,999.12
2023-05-20T02:43:03.586Z,999.12
2023-05-20T02:43:36.526Z,999.22
2023-05-20T02:44:07.722Z,999.22
2023-05-20T02:44:35.719Z,998.81
2023-05-20T02:44:54.734Z,998.81
2023-05-20T02:45:26.855Z,998.81
2023-05-20T02:45:43.616Z,999.12
2023-05-20T02:46:15.712Z,999.12
2023-05-20T02:46:36.615Z,999.12
2023-05-20T02:47:02.744Z,999.12
2023-05-20T02:47:34.786Z,999.12
2023-05-20T02:48:06.829Z,999.12
2023-05-20T02:48:35.610Z,999.12
2023-05-20T02:48:54.731Z,999.12
2023-05-20T02:49:27.658Z,999.12
2023-05-20T02:49:58.730Z,999.22
2023-05-20T02:50:31.693Z,999.22
2023-05-20T02:51:02.768Z,999.32
2023-05-20T02:51:36.726Z,999.22
2023-05-20T02:52:06.801Z,999.22
2023-05-20T02:52:35.907Z,999.02
2023-05-20T02:52:54.867Z,999.02
2023-05-20T02:53:26.721Z,999.02
2023-05-20T02:53:43.198Z,999.02
2023-05-20T02:54:14.725Z,999.02
2023-05-20T02:54:35.652Z,999.02
2023-05-20T02:55:03.676Z,999.02
2023-05-20T02:55:35.146Z,999.12
2023-05-20T02:56:07.705Z,999.12
2023-05-20T02:56:35.890Z,999.02
2023-05-20T02:56:54.764Z,999.02
2023-05-20T02:57:26.735Z,999.02
2023-05-20T02:57:43.266Z,999.12
2023-05-20T02:58:15.572Z,999.12
2023-05-20T02:58:35.589Z,999.02
2023-05-20T02:59:02.665Z,999.02
2023-05-20T02:59:34.731Z,999.12
2023-05-20T03:00:07.201Z,999.12
2023-05-20T03:00:35.612Z,999.02
2023-05-20T03:00:54.782Z,999.02
2023-05-20T03:01:27.678Z,999.02
2023-05-20T03:01:58.742Z,999.22
2023-05-20T03:02:31.546Z,999.22
2023-05-20T03:03:02.857Z,999.12
2023-05-20T03:03:36.566Z,998.92
2023-05-20T03:04:06.800Z,998.92
2023-05-20T03:04:35.715Z,998.92
2023-05-20T03:04:55.045Z,998.92
2023-05-20T03:05:26.847Z,998.92
2023-05-20T03:05:59.890Z,998.92
2023-05-20T03:06:30.753Z,998.92
2023-05-20T03:07:03.707Z,998.81
2023-05-20T03:07:34.695Z,998.81
2023-05-20T03:08:07.652Z,999.02
2023-05-20T03:08:35.568Z,998.81
2023-05-20T03:08:54.805Z,998.81
2023-05-20T03:09:26.759Z,998.81
2023-05-20T03:09:58.755Z,999.12
2023-05-20T03:10:30.759Z,999.12
2023-05-20T03:11:04.149Z,998.92
2023-05-20T03:11:34.667Z,998.92
2023-05-20T03:12:06.778Z,999.12
2023-05-20T03:12:35.550Z,998.92
2023-05-20T03:12:54.735Z,998.92
2023-05-20T03:13:27.716Z,998.92
2023-05-20T03:13:58.887Z,999.02
2023-05-20T03:14:31.566Z,999.02
2023-05-20T03:15:02.753Z,998.92
2023-05-20T03:15:36.266Z,998.92
2023-05-20T03:16:06.831Z,998.92
2023-05-20T03:16:36.191Z,999.12
2023-05-20T03:16:54.747Z,999.12
2023-05-20T03:17:26.723Z,999.12
2023-05-20T03:17:44.046Z,999.12
2023-05-20T03:18:15.009Z,999.12
2023-05-20T03:18:35.580Z,999.02
2023-05-20T03:19:02.761Z,999.02
2023-05-20T03:19:34.693Z,998.92
2023-05-20T03:20:07.653Z,998.92
2023-05-20T03:20:35.594Z,998.92
2023-05-20T03:20:54.772Z,998.92
2023-05-20T03:21:26.655Z,998.92
2023-05-20T03:21:43.171Z,999.12
2023-05-20T03:22:15.627Z,999.12
2023-05-20T03:22:35.593Z,998.92
2023-05-20T03:23:02.712Z,998.92
2023-05-20T03:23:34.735Z,998.92
2023-05-20T03:24:06.760Z,999.12
2023-05-20T03:24:35.576Z,999.12
2023-05-20T03:24:54.777Z,999.12
2023-05-20T03:25:27.564Z,999.12
2023-05-20T03:25:58.786Z,999.02
2023-05-20T03:26:31.583Z,999.02
2023-05-20T03:27:02.682Z,999.02
2023-05-20T03:27:36.503Z,999.02
2023-05-20T03:28:06.800Z,999.02
2023-05-20T03:28:36.107Z,999.12
2023-05-20T03:28:54.758Z,999.12
2023-05-20T03:29:26.704Z,999.12
2023-05-20T03:29:43.249Z,998.81
2023-05-20T03:30:14.734Z,998.81
2023-05-20T03:30:35.583Z,998.81
2023-05-20T03:31:03.706Z,998.81
2023-05-20T03:31:34.738Z,998.81
2023-05-20T03:32:09.466Z,998.81
2023-05-20T03:32:35.504Z,999.12
2023-05-20T03:32:54.754Z,999.12
2023-05-20T03:33:26.767Z,999.12
2023-05-20T03:33:43.327Z,998.92
2023-05-20T03:34:15.553Z,998.92
2023-05-20T03:34:35.532Z,999.02
2023-05-20T03:35:02.857Z,999.02
2023-05-20T03:35:36.336Z,999.02
2023-05-20T03:36:06.670Z,998.71
2023-05-20T03:36:35.624Z,999.02
2023-05-20T03:36:55.159Z,999.02
2023-05-20T03:37:27.581Z,999.02
2023-05-20T03:37:58.730Z,998.92
2023-05-20T03:38:31.548Z,998.92
2023-05-20T03:39:03.773Z,999.02
2023-05-20T03:39:36.012Z,999.02
2023-05-20T03:40:06.757Z,999.12
2023-05-20T03:40:37.121Z,998.92
2023-05-20T03:40:54.799Z,998.92
2023-05-20T03:41:26.707Z,998.92
2023-05-20T03:41:44.172Z,998.92
2023-05-20T03:42:14.786Z,998.92
2023-05-20T03:42:35.924Z,999.12
2023-05-20T03:43:02.756Z,999.12
2023-05-20T03:43:34.680Z,999.12
2023-05-20T03:44:07.798Z,998.92
2023-05-20T03:44:35.754Z,999.12
2023-05-20T03:44:54.740Z,999.12
2023-05-20T03:45:26.798Z,999.12
2023-05-20T03:45:43.685Z,999.22
2023-05-20T03:46:15.629Z,999.22
2023-05-20T03:46:35.888Z,998.92
2023-05-20T03:47:02.818Z,998.92
2023-05-20T03:47:34.802Z,998.92
2023-05-20T03:48:06.737Z,999.02
2023-05-20T03:48:35.536Z,998.92
2023-05-20T03:48:55.101Z,998.92
2023-05-20T03:49:27.604Z,998.92
2023-05-20T03:49:58.698Z,999.12
2023-05-20T03:50:31.544Z,999.12
2023-05-20T03:51:02.696Z,999.02
2023-05-20T03:51:35.953Z,999.02
2023-05-20T03:52:14.092Z,999.02
2023-05-20T03:52:24.289Z,998.81
2023-05-20T03:52:54.774Z,999.02
2023-05-20T03:53:26.702Z,999.02
2023-05-20T03:53:44.150Z,999.12
2023-05-20T03:54:14.728Z,999.12
2023-05-20T03:54:35.522Z,999.02
2023-05-20T03:55:02.903Z,999.02
2023-05-20T03:55:34.893Z,999.02
2023-05-20T03:56:07.593Z,999.02
2023-05-20T03:56:35.728Z,998.81
2023-05-20T03:56:54.703Z,998.81
2023-05-20T03:57:26.727Z,998.81
2023-05-20T03:57:43.244Z,999.02
2023-05-20T03:58:15.653Z,999.02
2023-05-20T03:58:35.676Z,998.81
2023-05-20T03:59:02.786Z,998.81
2023-05-20T03:59:35.214Z,998.81
2023-05-20T04:00:06.782Z,999.02
2023-05-20T04:00:36.504Z,999.12
2023-05-20T04:00:54.965Z,999.12
2023-05-20T04:01:27.640Z,999.12
2023-05-20T04:01:58.866Z,999.02
2023-05-20T04:02:31.965Z,999.02
2023-05-20T04:03:02.896Z,999.12
2023-05-20T04:03:36.222Z,999.12
2023-05-20T04:04:06.703Z,999.12
2023-05-20T04:04:36.408Z,999.02
2023-05-20T04:04:54.690Z,999.02
2023-05-20T04:05:26.727Z,999.02
2023-05-20T04:05:59.963Z,998.92
2023-05-20T04:06:30.711Z,998.92
2023-05-20T04:07:03.502Z,998.81
2023-05-20T04:07:34.682Z,998.81
2023-05-20T04:08:07.698Z,998.81
2023-05-20T04:08:35.613Z,999.12
2023-05-20T04:08:54.726Z,999.12
2023-05-20T04:09:26.678Z,999.12
2023-05-20T04:09:43.259Z,999.12
2023-05-20T04:10:15.467Z,999.12
2023-05-20T04:10:36.113Z,999.12
2023-05-20T04:11:02.694Z,999.12
2023-05-20T04:11:34.757Z,999.12
2023-05-20T04:12:06.752Z,999.02
2023-05-20T04:12:35.576Z,999.02
2023-05-20T04:12:54.668Z,999.02
2023-05-20T04:13:27.569Z,999.02
2023-05-20T04:13:58.845Z,999.02
2023-05-20T04:14:33.733Z,999.02
2023-05-20T04:15:02.910Z,999.12
2023-05-20T04:15:36.067Z,999.12
2023-05-20T04:16:06.708Z,999.02
2023-05-20T04:16:37.402Z,998.92
2023-05-20T04:16:54.754Z,998.92
2023-05-20T04:17:26.791Z,998.92
2023-05-20T04:17:44.158Z,999.22
2023-05-20T04:18:14.738Z,999.22
2023-05-20T04:18:35.965Z,998.92
2023-05-20T04:19:03.145Z,998.92
2023-05-20T04:19:36.018Z,998.92
2023-05-20T04:20:06.806Z,999.12
2023-05-20T04:20:37.096Z,999.12
2023-05-20T04:20:54.678Z,999.12
2023-05-20T04:21:26.700Z,999.12
2023-05-20T04:21:44.080Z,998.92
2023-05-20T04:22:14.684Z,998.92
2023-05-20T04:22:35.534Z,999.22
2023-05-20T04:23:02.735Z,999.22
2023-05-20T04:23:34.687Z,999.22
2023-05-20T04:24:07.632Z,999.32
2023-05-20T04:24:35.688Z,999.32
2023-05-20T04:24:54.736Z,999.32
2023-05-20T04:25:26.705Z,999.32
2023-05-20T04:25:43.123Z,999.12
2023-05-20T04:26:15.464Z,999.12
2023-05-20T04:26:36.213Z,999.12
2023-05-20T04:27:02.782Z,999.12
2023-05-20T04:27:34.864Z,999.12
2023-05-20T04:28:06.718Z,999.32
2023-05-20T04:28:35.912Z,999.12
2023-05-20T04:28:54.718Z,999.12
2023-05-20T04:29:27.589Z,999.12
2023-05-20T04:29:58.904Z,999.12
2023-05-20T04:30:31.847Z,999.12
2023-05-20T04:31:02.799Z,999.12
2023-05-20T04:31:36.133Z,999.12
2023-05-20T04:32:07.000Z,999.12
2023-05-20T04:32:37.512Z,999.22
2023-05-20T04:32:54.752Z,999.22
2023-05-20T04:33:26.724Z,999.22
2023-05-20T04:33:44.144Z,999.12
2023-05-20T04:34:14.676Z,999.12
2023-05-20T04:34:35.640Z,999.32
2023-05-20T04:35:02.747Z,999.32
2023-05-20T04:35:35.915Z,999.32
2023-05-20T04:36:07.589Z,999.12
2023-05-20T04:36:35.341Z,999.02
2023-05-20T04:36:54.640Z,999.02
2023-05-20T04:37:26.886Z,999.02
2023-05-20T04:37:58.720Z,999.12
2023-05-20T04:38:30.848Z,999.12
2023-05-20T04:39:02.706Z,999.02
2023-05-20T04:39:34.840Z,999.02
2023-05-20T04:40:06.645Z,999.02
2023-05-20T04:40:36.614Z,999.22
2023-05-20T04:40:54.769Z,999.22
2023-05-20T04:41:27.552Z,999.22
2023-05-20T04:41:58.722Z,999.02
2023-05-20T04:42:31.664Z,999.02
2023-05-20T04:43:02.790Z,998.92
2023-05-20T04:43:35.853Z,998.92
2023-05-20T04:44:06.731Z,998.92
2023-05-20T04:44:36.469Z,998.92
2023-05-20T04:44:54.678Z,998.92
2023-05-20T04:45:26.730Z,998.92
2023-05-20T04:45:44.372Z,998.92
2023-05-20T04:46:14.743Z,998.92
2023-05-20T04:46:36.208Z,999.02
2023-05-20T04:47:02.757Z,999.02
2023-05-20T04:47:35.720Z,999.02
2023-05-20T04:48:07.669Z,998.92
2023-05-20T04:48:35.669Z,999.12
2023-05-20T04:48:54.674Z,999.12
2023-05-20T04:49:26.663Z,999.12
2023-05-20T04:49:43.142Z,998.92
2023-05-20T04:50:15.484Z,998.92
2023-05-20T04:50:35.279Z,999.02
2023-05-20T04:51:02.653Z,999.02
2023-05-20T04:51:34.769Z,999.02
2023-05-20T04:52:06.669Z,998.81
2023-05-20T04:52:35.303Z,998.92
2023-05-20T04:52:55.063Z,998.92
2023-05-20T04:53:27.516Z,998.92
2023-05-20T04:53:58.708Z,998.92
2023-05-20T04:54:31.487Z,998.92
2023-05-20T04:55:02.824Z,999.02
2023-05-20T04:55:36.443Z,999.02
2023-05-20T04:56:06.713Z,998.92
2023-05-20T04:56:35.580Z,998.92
2023-05-20T04:56:54.803Z,998.92
2023-05-20T04:57:26.731Z,998.92
2023-05-20T04:57:43.165Z,998.92
2023-05-20T04:58:14.657Z,998.92
2023-05-20T04:58:35.334Z,998.92
2023-05-20T04:59:05.113Z,998.92
2023-05-20T04:59:34.672Z,998.92
2023-05-20T05:00:08.295Z,998.71
2023-05-20T05:00:35.350Z,998.92
2023-05-20T05:00:54.704Z,998.92
2023-05-20T05:01:26.963Z,998.92
2023-05-20T05:01:58.827Z,998.92
2023-05-20T05:02:30.650Z,998.92
2023-05-20T05:03:02.703Z,998.81
2023-05-20T05:03:36.719Z,998.81
2023-05-20T05:04:06.637Z,998.81
2023-05-20T05:04:35.352Z,998.92
2023-05-20T05:04:54.733Z,998.92
2023-05-20T05:05:27.479Z,998.92
2023-05-20T05:05:58.654Z,998.81
2023-05-20T05:06:31.530Z,998.81
2023-05-20T05:07:02.627Z,998.92
2023-05-20T05:07:36.586Z,998.92
2023-05-20T05:08:06.637Z,999.02
2023-05-20T05:08:35.721Z,999.02
2023-05-20T05:09:10.672Z,999.02
2023-05-20T05:09:35.379Z,998.81
2023-05-20T05:10:00.149Z,998.81
2023-05-20T05:10:30.623Z,998.81
2023-05-20T05:11:03.425Z,998.92
2023-05-20T05:11:34.717Z,998.92
2023-05-20T05:12:07.566Z,998.81
2023-05-20T05:12:35.620Z,999.12
2023-05-20T05:12:54.686Z,999.12
2023-05-20T05:13:28.097Z,999.12
2023-05-20T05:13:43.171Z,998.71
2023-05-20T05:14:15.542Z,998.71
2023-05-20T05:14:35.711Z,998.81
2023-05-20T05:15:02.823Z,998.81
2023-05-20T05:15:35.340Z,998.81
2023-05-20T05:16:06.780Z,998.92
2023-05-20T05:16:35.725Z,998.92
2023-05-20T05:16:55.794Z,998.92
2023-05-20T05:17:27.554Z,998.92
2023-05-20T05:17:58.718Z,998.81
2023-05-20T05:18:31.596Z,998.81
2023-05-20T05:19:02.658Z,998.71
2023-05-20T05:19:34.612Z,998.71
2023-05-20T05:20:06.687Z,998.81
2023-05-20T05:20:36.141Z,998.71
2023-05-20T05:20:56.684Z,998.71
2023-05-20T05:21:26.639Z,998.71
2023-05-20T05:21:43.327Z,999.02
2023-05-20T05:22:14.753Z,999.02
2023-05-20T05:22:35.300Z,999.02
2023-05-20T05:23:03.766Z,999.02
2023-05-20T05:23:35.064Z,999.02
2023-05-20T05:24:07.485Z,998.81
2023-05-20T05:24:35.784Z,998.81
2023-05-20T05:24:54.636Z,998.81
2023-05-20T05:25:26.786Z,998.81
2023-05-20T05:25:43.215Z,998.81
2023-05-20T05:26:15.466Z,998.81
2023-05-20T05:26:35.286Z,998.61
2023-05-20T05:27:02.759Z,998.61
2023-05-20T05:27:34.595Z,998.61
2023-05-20T05:28:06.652Z,998.61
2023-05-20T05:28:36.435Z,998.71
2023-05-20T05:28:54.638Z,998.71
2023-05-20T05:29:27.636Z,998.71
2023-05-20T05:29:58.635Z,998.81
2023-05-20T05:30:31.403Z,998.81
2023-05-20T05:31:02.678Z,998.61
2023-05-20T05:31:36.531Z,998.61
2023-05-20T05:32:06.700Z,998.81
2023-05-20T05:32:35.989Z,998.61
2023-05-20T05:32:54.769Z,998.61
2023-05-20T05:33:26.708Z,998.61
2023-05-20T05:33:43.111Z,998.81
2023-05-20T05:34:14.744Z,998.81
2023-05-20T05:34:35.378Z,998.71
2023-05-20T05:35:04.644Z,998.71
2023-05-20T05:35:35.275Z,998.71
2023-05-20T05:36:07.429Z,998.61
2023-05-20T05:36:35.359Z,998.61
2023-05-20T05:36:54.769Z,998.61
2023-05-20T05:37:26.685Z,998.61
2023-05-20T05:37:43.140Z,998.61
2023-05-20T05:38:15.531Z,998.61
2023-05-20T05:38:35.457Z,998.81
2023-05-20T05:39:02.658Z,998.81
2023-05-20T05:39:35.061Z,998.81
2023-05-20T05:40:06.801Z,998.71
2023-05-20T05:40:36.046Z,998.61
2023-05-20T05:40:54.630Z,998.61
2023-05-20T05:41:27.536Z,998.61
2023-05-20T05:41:58.579Z,998.71
2023-05-20T05:42:31.438Z,998.71
2023-05-20T05:43:02.697Z,998.44
2023-05-20T05:43:35.777Z,998.44
2023-05-20T05:44:06.607Z,998.61
2023-05-20T05:44:36.464Z,998.71
2023-05-20T05:44:54.641Z,998.71
2023-05-20T05:45:26.655Z,998.71
2023-05-20T05:45:44.046Z,998.44
2023-05-20T05:46:14.687Z,998.44
2023-05-20T05:46:35.293Z,998.51
2023-05-20T05:47:02.743Z,998.51
2023-05-20T05:47:34.711Z,998.51
2023-05-20T05:48:07.480Z,998.51
2023-05-20T05:48:35.835Z,998.51
2023-05-20T05:48:54.613Z,998.51
2023-05-20T05:49:26.598Z,998.51
2023-05-20T05:49:43.052Z,998.51
2023-05-20T05:50:15.598Z,998.51
2023-05-20T05:50:35.261Z,998.61
2023-05-20T05:51:02.645Z,998.61
2023-05-20T05:51:35.955Z,998.61
2023-05-20T05:52:06.665Z,998.51
2023-05-20T05:52:35.996Z,998.61